Time;durP1;ratioP1;P1;durP2;ratioP2;P2;SDS_P1;SDS_P2;PMS_P1;PMS_P2;Temp;Humidity;BMP_temperature;BMP_pressure;BME280_temperature;BME280_humidity;BME280_pressure;Samples;Min_cycle;Max_cycle;Signal;HPM_P1;HPM_P2
2021/11/17 02:26:09;;;;;;;;;;;;;;;-144.99;100.00;52611.16;5031752;28;19989;-66
2021/11/17 02:28:45;;;;;;;;;;;;;;;-144.99;100.00;52590.78;5031357;28;19977;-66
2021/11/17 02:31:39;;;;;;;;;;;;;;;-144.99;100.00;52603.00;5024081;28;19993;-66
2021/11/17 02:34:22;;;;;;;;;;;;;;;-144.99;100.00;52603.00;4983018;28;20199;-65
2021/11/17 02:37:01;;;;;;;;;;;;;;;-144.99;100.00;52588.75;5031676;28;19983;-66
2021/11/17 02:39:35;;;;;;;;;;;;;;;-144.99;100.00;52603.00;5028167;28;20330;-65
2021/11/17 02:42:11;;;;;;;;;;;;;;;-144.99;100.00;52627.47;5030621;28;19977;-68
2021/11/17 02:44:50;;;;;;;;;;;;;;;-144.99;100.00;52678.44;5029683;28;19977;-68
2021/11/17 02:47:23;;;;;;;;;;;;;;;-144.99;100.00;52615.25;5030658;28;19974;-67
2021/11/17 02:50:00;;;;;;;;;;;;;;;-144.99;100.00;52611.16;5028254;28;19978;-67
2021/11/17 02:52:36;;;;;;;;;;;;;;;-144.99;100.00;52627.47;5030361;28;20080;-67
2021/11/17 02:55:13;;;;;;;;;;;;;;;-144.99;100.00;52617.28;5030527;28;19977;-67
2021/11/17 02:57:46;;;;;;;;;;;;;;;-144.99;100.00;52635.63;5030959;28;19983;-67
2021/11/17 03:00:27;;;;;;;;;;;;;;;-144.99;100.00;52582.63;5030173;28;19985;-68
2021/11/17 03:03:02;;;;;;;;;;;;;;;-144.99;100.00;52613.19;5028010;28;20489;-67
2021/11/17 03:05:46;;;;;;;;;;;;;;;-144.99;100.00;52609.13;5030046;28;19993;-70
2021/11/17 03:08:21;;;;;;;;;;;;;;;-144.99;100.00;52611.16;5028451;28;20077;-68
2021/11/17 03:10:54;;;;;;;;;;;;;;;-144.99;100.00;52635.63;5028580;28;19987;-68
2021/11/17 03:13:30;;;;;;;;;;;;;;;-144.99;100.00;52598.94;5029830;28;20124;-68
2021/11/17 03:16:14;;;;;;;;;;;;;;;-144.99;100.00;52619.31;5026638;28;20434;-67
2021/11/17 03:18:50;;;;;;;;;;;;;;;-144.99;100.00;52611.16;5029380;28;19981;-72
2021/11/17 03:21:22;;;;;;;;;;;;;;;-144.99;100.00;52603.00;5030373;28;20341;-67
2021/11/17 03:23:57;;;;;;;;;;;;;;;-144.99;100.00;52582.63;5029547;28;19994;-68
2021/11/17 03:26:30;;;;;;;;;;;;;;;-144.99;100.00;52623.38;5026424;28;20430;-68
2021/11/17 03:29:10;;;;;;;;;;;;;;;-144.99;100.00;52656.00;5029077;28;19982;-68
2021/11/17 03:31:46;;;;;;;;;;;;;;;-144.99;100.00;52625.44;5029281;28;20036;-67
2021/11/17 03:34:19;;;;;;;;;;;;;;;-144.99;100.00;52607.09;5028324;28;20011;-69
2021/11/17 03:37:15;;;;;;;;;;;;;;;-144.99;100.00;52605.03;5029811;28;20465;-68
2021/11/17 03:39:53;;;;;;;;;;;;;;;-144.99;100.00;52611.16;4987451;28;19978;-65
2021/11/17 03:42:34;;;;;;;;;;;;;;;-144.99;100.00;52609.13;5022808;28;19980;-61
2021/11/17 03:45:21;;;;;;;;;;;;;;;-144.99;100.00;52566.31;5023130;28;20303;-60
2021/11/17 03:47:54;;;;;;;;;;;;;;;-144.99;100.00;52590.78;5023139;28;19985;-61
2021/11/17 03:50:33;;;;;;;;;;;;;;;-144.99;100.00;52615.25;5029353;28;19978;-59
2021/11/17 03:53:07;;;;;;;;;;;;;;;-144.99;100.00;52637.66;5028798;28;20012;-60
2021/11/17 03:55:42;;;;;;;;;;;;;;;-144.99;100.00;52611.16;5029592;28;19977;-64
2021/11/17 03:58:16;;;;;;;;;;;;;;;-144.99;100.00;52631.53;5024062;28;20389;-65
2021/11/17 04:01:08;;;;;;;;;;;;;;;-144.99;100.00;52609.13;5028656;28;19977;-65
2021/11/17 04:03:41;;;;;;;;;;;;;;;-144.99;100.00;52619.31;5025051;28;20000;-62
2021/11/17 04:06:13;;;;;;;;;;;;;;;-144.99;100.00;52641.72;5023415;28;19989;-61
2021/11/17 04:08:46;;;;;;;;;;;;;;;-144.99;100.00;52619.31;5026679;28;19988;-60
2021/11/17 04:11:33;;;;;;;;;;;;;;;-144.99;100.00;52631.53;5029433;28;19973;-60
2021/11/17 04:14:05;;;;;;;;;;;;;;;-144.99;100.00;52627.47;5023918;28;19995;-59
2021/11/17 04:16:41;;;;;;;;;;;;;;;-144.99;100.00;52607.09;5028155;28;20481;-60
2021/11/17 04:19:13;;;;;;;;;;;;;;;-144.99;100.00;52590.78;5022279;28;19977;-61
2021/11/17 04:21:49;;;;;;;;;;;;;;;-144.99;100.00;52603.00;5027800;28;20467;-60
2021/11/17 04:24:22;;;;;;;;;;;;;;;-144.99;100.00;52645.81;5026221;28;20023;-61
2021/11/17 04:26:54;;;;;;;;;;;;;;;-144.99;100.00;52660.09;5029330;28;19977;-59
2021/11/17 04:29:32;;;;;;;;;;;;;;;-144.99;100.00;52566.31;5029533;28;19980;-62
2021/11/17 04:32:13;;;;;;;;;;;;;;;-144.99;100.00;52631.53;5028958;28;19997;-66
2021/11/17 04:34:58;;;;;;;;;;;;;;;-144.99;100.00;52574.47;5024145;28;19978;-65
2021/11/17 04:37:34;;;;;;;;;;;;;;;-144.99;100.00;52631.53;5026434;28;19978;-63
2021/11/17 04:40:10;;;;;;;;;;;;;;;-144.99;100.00;52578.53;5027944;28;20064;-60
2021/11/17 04:42:43;;;;;;;;;;;;;;;-144.99;100.00;52643.78;5025638;28;19993;-60
2021/11/17 04:45:26;;;;;;;;;;;;;;;-144.99;100.00;52607.09;5029696;28;19974;-60
2021/11/17 04:47:58;;;;;;;;;;;;;;;-144.99;100.00;52615.25;5029454;28;19988;-60
2021/11/17 04:50:35;;;;;;;;;;;;;;;-144.99;100.00;52639.69;5025383;28;19985;-61
2021/11/17 04:53:09;;;;;;;;;;;;;;;-144.99;100.00;52617.28;5028360;28;20033;-60
2021/11/17 04:55:42;;;;;;;;;;;;;;;-144.99;100.00;52627.47;5028898;28;20146;-60
2021/11/17 04:58:18;;;;;;;;;;;;;;;-144.99;100.00;52627.47;5023589;28;19980;-61
2021/11/17 05:01:03;;;;;;;;;;;;;;;-144.99;100.00;52617.28;5027978;28;19981;-61
2021/11/17 05:03:37;;;;;;;;;;;;;;;-144.99;100.00;52611.16;5018229;28;19993;-61
2021/11/17 05:06:18;;;;;;;;;;;;;;;-144.99;100.00;52623.38;5022194;28;20323;-61
2021/11/17 05:08:48;;;;;;;;;;;;;;;-144.99;100.00;52594.84;5025982;28;19977;-61
2021/11/17 05:11:21;;;;;;;;;;;;;;;-144.99;100.00;52615.25;5027687;28;19974;-62
2021/11/17 05:13:51;;;;;;;;;;;;;;;-144.99;100.00;52631.53;5023136;28;19977;-62
2021/11/17 05:16:23;;;;;;;;;;;;;;;-144.99;100.00;52586.69;5025713;28;19974;-61
2021/11/17 05:18:56;;;;;;;;;;;;;;;-144.99;100.00;52586.69;5028286;28;19998;-60
2021/11/17 05:21:31;;;;;;;;;;;;;;;-144.99;100.00;52651.94;5026825;28;21115;-62
2021/11/17 05:24:11;;;;;;;;;;;;;;;-144.99;100.00;52611.16;5048619;22;20003;-66
2021/11/17 05:26:44;;;;;;;;;;;;;;;-144.99;100.00;52607.09;5047762;28;19977;-66
2021/11/17 05:29:20;;;;;;;;;;;;;;;-144.99;100.00;52598.94;5053858;28;19980;-66
2021/11/17 05:31:53;;;;;;;;;;;;;;;-144.99;100.00;52600.97;5067809;28;19980;-67
2021/11/17 05:34:30;;;;;;;;;;;;;;;-144.99;100.00;52582.63;5049011;28;19989;-66
2021/11/17 05:37:01;;;;;;;;;;;;;;;-144.99;100.00;52594.84;5037748;28;20000;-66
2021/11/17 05:39:34;;;;;;;;;;;;;;;-144.99;100.00;52607.09;5029921;28;19977;-66
2021/11/17 05:42:07;;;;;;;;;;;;;;;-144.99;100.00;52590.78;5025106;28;19989;-66
2021/11/17 05:44:40;;;;;;;;;;;;;;;-144.99;100.00;52580.59;5029519;28;19985;-65
2021/11/17 05:47:17;;;;;;;;;;;;;;;-144.99;100.00;52623.38;5028638;28;19985;-66
2021/11/17 05:49:51;;;;;;;;;;;;;;;-144.99;100.00;52603.00;5026754;28;20000;-68
2021/11/17 05:52:23;;;;;;;;;;;;;;;-144.99;100.00;52619.31;5027869;28;19981;-68
2021/11/17 05:54:56;;;;;;;;;;;;;;;-144.99;100.00;52598.94;5029160;28;19981;-68
2021/11/17 05:57:31;;;;;;;;;;;;;;;-144.99;100.00;52611.16;5028180;28;19978;-69
2021/11/17 06:00:08;;;;;;;;;;;;;;;-144.99;100.00;52611.16;5025064;28;19981;-69
2021/11/17 06:02:54;;;;;;;;;;;;;;;-144.99;100.00;52619.31;5032710;28;20532;-70
2021/11/17 06:05:20;;;;;;;;;;;;;;;-144.99;100.00;52619.31;4331960;28;10000727;-69
2021/11/17 06:07:47;;;;;;;;;;;;;;;-144.99;100.00;52586.69;5030043;28;20434;-70
2021/11/17 06:10:16;;;;;;;;;;;;;;;-144.99;100.00;52598.94;5028569;28;20297;-71
2021/11/17 06:12:42;;;;;;;;;;;;;;;-144.99;100.00;52619.31;5029407;28;20001;-70
2021/11/17 06:15:11;;;;;;;;;;;;;;;-144.99;100.00;52651.94;5029949;28;20415;-70
2021/11/17 06:17:40;;;;;;;;;;;;;;;-144.99;100.00;52607.09;5029212;28;19978;-70
2021/11/17 06:20:09;;;;;;;;;;;;;;;-144.99;100.00;52619.31;5029060;28;19950;-70
2021/11/17 06:22:36;;;;;;;;;;;;;;;-144.99;100.00;52607.09;5029891;28;20012;-71
2021/11/17 06:25:06;;;;;;;;;;;;;;;-144.99;100.00;52594.84;5029772;28;19978;-71
2021/11/17 06:27:35;;;;;;;;;;;;;;;-144.99;100.00;52631.53;5029847;28;19985;-70
2021/11/17 06:30:01;;;;;;;;;;;;;;;-144.99;100.00;52603.00;5030413;28;19977;-69
2021/11/17 06:32:28;;;;;;;;;;;;;;;-144.99;100.00;52582.63;5032704;28;19984;-70
2021/11/17 06:34:56;;;;;;;;;;;;;;;-144.99;100.00;52615.25;5032325;28;19984;-70
2021/11/17 06:37:23;;;;;;;;;;;;;;;-144.99;100.00;52586.69;5034876;28;19988;-70
2021/11/17 06:39:51;;;;;;;;;;;;;;;-144.99;100.00;52605.03;5034625;28;19989;-70
2021/11/17 06:42:18;;;;;;;;;;;;;;;-144.99;100.00;52578.53;5033549;28;19993;-70
2021/11/17 06:44:46;;;;;;;;;;;;;;;-144.99;100.00;52586.69;5030636;28;20004;-70
2021/11/17 06:47:12;;;;;;;;;;;;;;;-144.99;100.00;52631.53;5026869;28;19978;-70
2021/11/17 06:49:39;;;;;;;;;;;;;;;-144.99;100.00;52605.03;5032806;28;19989;-70
2021/11/17 06:52:06;;;;;;;;;;;;;;;-144.99;100.00;52603.00;5026334;28;19974;-69
2021/11/17 06:54:32;;;;;;;;;;;;;;;-144.99;100.00;52570.38;5029968;28;19988;-72
2021/11/17 06:56:59;;;;;;;;;;;;;;;-144.99;100.00;52592.81;5029551;28;19978;-71
2021/11/17 06:59:25;;;;;;;;;;;;;;;-144.99;100.00;52598.94;5034312;28;20449;-70
2021/11/17 07:01:54;;;;;;;;;;;;;;;-144.99;100.00;52586.69;5029279;28;19974;-70
2021/11/17 07:04:20;;;;;;;;;;;;;;;-144.99;100.00;52615.25;5028080;28;19990;-70
2021/11/17 07:06:46;;;;;;;;;;;;;;;-144.99;100.00;52603.00;5028920;28;20061;-70
2021/11/17 07:09:13;;;;;;;;;;;;;;;-144.99;100.00;52598.94;5027319;28;19974;-71
2021/11/17 07:11:40;;;;;;;;;;;;;;;-144.99;100.00;52623.38;5026399;28;20339;-71
2021/11/17 07:14:07;;;;;;;;;;;;;;;-144.99;100.00;52627.47;5024765;28;20332;-70
2021/11/17 07:16:34;;;;;;;;;;;;;;;-144.99;100.00;52633.59;5028628;28;19984;-70
2021/11/17 07:19:02;;;;;;;;;;;;;;;-144.99;100.00;52574.47;5028455;28;20425;-70
2021/11/17 07:21:29;;;;;;;;;;;;;;;-144.99;100.00;52576.50;5022197;28;20040;-70
2021/11/17 07:23:55;;;;;;;;;;;;;;;-144.99;100.00;52598.94;5028385;28;20500;-69
2021/11/17 07:26:21;;;;;;;;;;;;;;;-144.99;100.00;52607.09;5025318;28;19973;-71
2021/11/17 07:28:48;;;;;;;;;;;;;;;-144.99;100.00;52623.38;5028218;28;20000;-70
2021/11/17 07:31:14;;;;;;;;;;;;;;;-144.99;100.00;52603.00;5026943;28;19978;-70
2021/11/17 07:33:41;;;;;;;;;;;;;;;-144.99;100.00;52590.78;5028441;28;20004;-72
2021/11/17 07:36:09;;;;;;;;;;;;;;;-144.99;100.00;52562.25;5028490;28;19981;-71
2021/11/17 07:38:35;;;;;;;;;;;;;;;-144.99;100.00;52615.25;5023417;28;19994;-70
2021/11/17 07:41:01;;;;;;;;;;;;;;;-144.99;100.00;52611.16;5027681;28;20358;-71
2021/11/17 07:43:29;;;;;;;;;;;;;;;-144.99;100.00;52611.16;5028278;28;20362;-70
2021/11/17 07:45:56;;;;;;;;;;;;;;;-144.99;100.00;52603.00;5028047;28;20362;-70
2021/11/17 07:48:25;;;;;;;;;;;;;;;-144.99;100.00;52576.50;5028488;28;19978;-71
2021/11/17 07:50:52;;;;;;;;;;;;;;;-144.99;100.00;52590.78;5025084;28;20356;-70
2021/11/17 07:53:22;;;;;;;;;;;;;;;-144.99;100.00;52574.47;5027461;28;19997;-70
2021/11/17 07:55:49;;;;;;;;;;;;;;;-144.99;100.00;52629.50;5027713;28;19982;-71
2021/11/17 07:58:16;;;;;;;;;;;;;;;-144.99;100.00;52592.81;5025170;28;20509;-70
2021/11/17 08:00:47;;;;;;;;;;;;;;;-144.99;100.00;52627.47;5029475;28;19973;-71
2021/11/17 08:03:14;;;;;;;;;;;;;;;-144.99;100.00;52562.25;5029975;28;20004;-70
2021/11/17 08:05:41;;;;;;;;;;;;;;;-144.99;100.00;52566.31;5027468;28;20237;-70
2021/11/17 08:08:08;;;;;;;;;;;;;;;-144.99;100.00;52598.94;5026891;28;20247;-70
2021/11/17 08:10:37;;;;;;;;;;;;;;;-144.99;100.00;52570.38;5027889;28;19989;-70
2021/11/17 08:13:03;;;;;;;;;;;;;;;-144.99;100.00;52617.28;5024371;28;19993;-73
2021/11/17 08:15:30;;;;;;;;;;;;;;;-144.99;100.00;52574.47;5027873;28;19974;-70
2021/11/17 08:17:56;;;;;;;;;;;;;;;-144.99;100.00;52574.47;5027131;28;20469;-69
2021/11/17 08:20:23;;;;;;;;;;;;;;;-144.99;100.00;52607.09;5026512;28;20458;-71
2021/11/17 08:22:51;;;;;;;;;;;;;;;-144.99;100.00;52562.25;5027342;28;20357;-69
2021/11/17 08:25:18;;;;;;;;;;;;;;;-144.99;100.00;52590.78;5027452;28;19982;-69
2021/11/17 08:27:46;;;;;;;;;;;;;;;-144.99;100.00;52611.16;5027474;28;19977;-68
2021/11/17 08:30:13;;;;;;;;;;;;;;;-144.99;100.00;52545.94;5026340;28;20353;-69
2021/11/17 08:32:40;;;;;;;;;;;;;;;-144.99;100.00;52554.09;5027080;28;20147;-68
2021/11/17 08:35:07;;;;;;;;;;;;;;;-144.99;100.00;52578.53;5026663;28;19977;-70
2021/11/17 08:37:33;;;;;;;;;;;;;;;-144.99;100.00;52615.25;5027194;28;19977;-68
2021/11/17 08:40:00;;;;;;;;;;;;;;;-144.99;100.00;52615.25;5026380;28;19973;-68
2021/11/17 08:42:26;;;;;;;;;;;;;;;-144.99;100.00;52566.31;5027099;28;19981;-70
2021/11/17 08:44:54;;;;;;;;;;;;;;;-144.99;100.00;52574.47;5027134;28;20422;-69
2021/11/17 08:47:21;;;;;;;;;;;;;;;-144.99;100.00;52582.63;5022090;28;19981;-69
2021/11/17 08:49:47;;;;;;;;;;;;;;;-144.99;100.00;52611.16;5024616;28;20452;-69
2021/11/17 08:52:14;;;;;;;;;;;;;;;-144.99;100.00;52582.63;5027035;28;20012;-70
2021/11/17 08:54:41;;;;;;;;;;;;;;;-144.99;100.00;52635.63;5023972;28;19978;-68
2021/11/17 08:57:07;;;;;;;;;;;;;;;-144.99;100.00;52568.34;5026119;28;19977;-70
2021/11/17 08:59:34;;;;;;;;;;;;;;;-144.99;100.00;52586.69;5022630;28;19981;-69
2021/11/17 09:02:02;;;;;;;;;;;;;;;-144.99;100.00;52594.84;5046238;28;19973;-72
2021/11/17 09:04:28;;;;;;;;;;;;;;;-144.99;100.00;52623.38;5045511;28;19998;-70
2021/11/17 09:06:55;;;;;;;;;;;;;;;-144.99;100.00;52596.88;5045043;28;19989;-69
2021/11/17 09:09:21;;;;;;;;;;;;;;;-144.99;100.00;52582.63;5031415;28;20438;-69
2021/11/17 09:11:48;;;;;;;;;;;;;;;-144.99;100.00;52566.31;5026583;28;20450;-69
2021/11/17 09:14:14;;;;;;;;;;;;;;;-144.99;100.00;52623.38;5026632;28;20260;-69
2021/11/17 09:16:41;;;;;;;;;;;;;;;-144.99;100.00;52619.31;5023885;28;20442;-70
2021/11/17 09:19:09;;;;;;;;;;;;;;;-144.99;100.00;52554.09;5025843;28;19984;-69
2021/11/17 09:21:37;;;;;;;;;;;;;;;-144.99;100.00;52619.31;5026217;28;19950;-69
2021/11/17 09:24:04;;;;;;;;;;;;;;;-144.99;100.00;52613.19;5020997;28;20001;-69
2021/11/17 09:26:31;;;;;;;;;;;;;;;-144.99;100.00;52603.00;5036361;28;19985;-71
2021/11/17 09:28:58;;;;;;;;;;;;;;;-144.99;100.00;52598.94;5030562;28;19981;-70
2021/11/17 09:31:25;;;;;;;;;;;;;;;-144.99;100.00;52594.84;5028577;28;19977;-69
2021/11/17 09:33:52;;;;;;;;;;;;;;;-144.99;100.00;52631.53;5028086;28;20004;-69
2021/11/17 09:36:21;;;;;;;;;;;;;;;-144.99;100.00;52598.94;5025601;28;19981;-71
2021/11/17 09:38:50;;;;;;;;;;;;;;;-144.99;100.00;52623.38;5030465;28;19990;-69
2021/11/17 09:41:17;;;;;;;;;;;;;;;-144.99;100.00;52574.47;5030583;28;19978;-69
2021/11/17 09:43:45;;;;;;;;;;;;;;;-144.99;100.00;52635.63;5029718;28;20345;-69
2021/11/17 09:46:12;;;;;;;;;;;;;;;-144.99;100.00;52584.66;5026970;28;19982;-68
2021/11/17 09:48:39;;;;;;;;;;;;;;;-144.99;100.00;52574.47;5030383;28;19985;-69
2021/11/17 09:51:08;;;;;;;;;;;;;;;-144.99;100.00;52560.19;5030523;28;19974;-69
2021/11/17 09:53:38;;;;;;;;;;;;;;;-144.99;100.00;52582.63;5025113;28;20040;-70
2021/11/17 09:56:07;;;;;;;;;;;;;;;-144.99;100.00;52570.38;5022804;28;19984;-70
2021/11/17 09:58:35;;;;;;;;;;;;;;;-144.99;100.00;52643.78;5030913;28;19982;-68
2021/11/17 10:01:06;;;;;;;;;;;;;;;-144.99;100.00;52586.69;5024786;28;20436;-69
2021/11/17 10:03:35;;;;;;;;;;;;;;;-144.99;100.00;52537.78;5029899;28;20476;-68
2021/11/17 10:14:39;;;;;;;;;;;;;;;-144.99;100.00;52554.09;5008121;28;19988;-68
2021/11/17 10:17:21;;;;;;;;;;;;;;;-144.99;100.00;52586.69;5027833;28;19977;-69
2021/11/17 10:20:03;;;;;;;;;;;;;;;-144.99;100.00;52566.31;5028892;28;19981;-67
2021/11/17 10:22:30;;;;;;;;;;;;;;;-144.99;100.00;52578.53;5025804;28;20003;-67
2021/11/17 10:25:07;;;;;;;;;;;;;;;-144.99;100.00;52566.31;5025897;28;20001;-69
2021/11/17 10:27:33;;;;;;;;;;;;;;;-144.99;100.00;52586.69;5029448;28;19977;-68
2021/11/17 10:30:01;;;;;;;;;;;;;;;-144.99;100.00;52590.78;5029256;28;19981;-68
2021/11/17 10:32:33;;;;;;;;;;;;;;;-144.99;100.00;52562.25;5025360;28;19998;-68
2021/11/17 10:35:03;;;;;;;;;;;;;;;-144.99;100.00;52570.38;5029748;28;19973;-69
2021/11/17 10:37:31;;;;;;;;;;;;;;;-144.99;100.00;52594.84;5029070;28;20071;-68
2021/11/17 10:39:59;;;;;;;;;;;;;;;-144.99;100.00;52627.47;5028647;28;19982;-69
2021/11/17 10:42:28;;;;;;;;;;;;;;;-144.99;100.00;52570.38;5029325;28;19981;-69
2021/11/17 10:44:56;;;;;;;;;;;;;;;-144.99;100.00;52590.78;5028898;28;20345;-69
2021/11/17 10:47:25;;;;;;;;;;;;;;;-144.99;100.00;52578.53;5030307;28;19988;-69
2021/11/17 10:49:52;;;;;;;;;;;;;;;-144.99;100.00;52578.53;5021383;28;19978;-68
2021/11/17 10:52:23;;;;;;;;;;;;;;;-144.99;100.00;52550.00;5028698;28;20064;-69
2021/11/17 10:54:51;;;;;;;;;;;;;;;-144.99;100.00;52639.69;5028623;28;19988;-69
2021/11/17 10:57:20;;;;;;;;;;;;;;;-144.99;100.00;52550.00;5028972;28;20447;-69
2021/11/17 10:59:47;;;;;;;;;;;;;;;-144.99;100.00;52586.69;5027642;28;19981;-69
2021/11/17 11:02:14;;;;;;;;;;;;;;;-144.99;100.00;52566.31;5029252;28;19974;-69
2021/11/17 11:04:42;;;;;;;;;;;;;;;-144.99;100.00;52578.53;5027864;28;20008;-69
2021/11/17 11:07:11;;;;;;;;;;;;;;;-144.99;100.00;52568.34;5030317;28;19988;-69
2021/11/17 11:09:41;;;;;;;;;;;;;;;-144.99;100.00;52529.63;5028539;28;20357;-69
2021/11/17 11:12:08;;;;;;;;;;;;;;;-144.99;100.00;52586.69;5025091;28;20453;-69
2021/11/17 11:14:50;;;;;;;;;;;;;;;-144.99;100.00;52598.94;5029153;28;19985;-68
2021/11/17 11:17:21;;;;;;;;;;;;;;;-144.99;100.00;52570.38;5026873;28;19980;-69
2021/11/17 11:19:49;;;;;;;;;;;;;;;-144.99;100.00;52554.09;5026537;28;19984;-69
2021/11/17 11:22:17;;;;;;;;;;;;;;;-144.99;100.00;52607.09;5025273;28;20334;-69
2021/11/17 11:24:45;;;;;;;;;;;;;;;-144.99;100.00;52570.38;5027582;28;20003;-71
2021/11/17 11:27:23;;;;;;;;;;;;;;;-144.99;100.00;52558.16;5028365;28;20370;-70
2021/11/17 11:29:51;;;;;;;;;;;;;;;-144.99;100.00;52554.09;5027599;28;20454;-70
2021/11/17 11:32:36;;;;;;;;;;;;;;;-144.99;100.00;52570.38;5026566;28;19985;-71
2021/11/17 11:35:20;;;;;;;;;;;;;;;-144.99;100.00;52547.97;5026925;28;19978;-70
2021/11/17 11:38:00;;;;;;;;;;;;;;;-144.99;100.00;52554.09;5020865;28;19982;-69
2021/11/17 11:40:28;;;;;;;;;;;;;;;-144.99;100.00;52582.63;5028098;28;19981;-70
2021/11/17 11:43:13;;;;;;;;;;;;;;;-144.99;100.00;52552.03;5027956;28;19997;-68
2021/11/17 11:45:45;;;;;;;;;;;;;;;-144.99;100.00;52533.69;5033408;28;20012;-71
2021/11/17 11:48:13;;;;;;;;;;;;;;;-144.99;100.00;52574.47;5051162;28;19977;-71
2021/11/17 11:50:47;;;;;;;;;;;;;;;-144.99;100.00;52558.16;5045035;28;19977;-73
2021/11/17 11:53:16;;;;;;;;;;;;;;;-144.99;100.00;52550.00;5038702;28;20000;-70
2021/11/17 11:56:15;;;;;;;;;;;;;;;-144.99;100.00;52578.53;5025570;28;19989;-69
2021/11/17 11:58:42;;;;;;;;;;;;;;;-144.99;100.00;52547.97;5036178;28;19982;-70
2021/11/17 12:01:12;;;;;;;;;;;;;;;-144.99;100.00;52574.47;5039385;28;20434;-69
2021/11/17 12:03:44;;;;;;;;;;;;;;;-144.99;100.00;52550.00;5036121;28;19998;-69
2021/11/17 12:06:14;;;;;;;;;;;;;;;-144.99;100.00;52578.53;5023527;28;19981;-69
2021/11/17 12:08:44;;;;;;;;;;;;;;;-144.99;100.00;52545.94;5029197;28;20083;-69
2021/11/17 12:11:12;;;;;;;;;;;;;;;-144.99;100.00;52552.03;5022732;28;20232;-70
2021/11/17 12:13:39;;;;;;;;;;;;;;;-144.99;100.00;52552.03;5027950;28;20004;-71
2021/11/17 12:16:10;;;;;;;;;;;;;;;-144.99;100.00;52513.31;5028600;28;20391;-68
2021/11/17 12:18:46;;;;;;;;;;;;;;;-144.99;100.00;52554.09;5027982;28;19985;-71
2021/11/17 12:21:17;;;;;;;;;;;;;;;-144.99;100.00;52586.69;5025854;28;19968;-69
2021/11/17 12:23:45;;;;;;;;;;;;;;;-144.99;100.00;52521.47;5029251;28;19994;-69
2021/11/17 12:26:13;;;;;;;;;;;;;;;-144.99;100.00;52515.34;5025246;28;19973;-69
2021/11/17 12:28:45;;;;;;;;;;;;;;;-144.99;100.00;52533.69;5029937;28;20318;-69
2021/11/17 12:31:15;;;;;;;;;;;;;;;-144.99;100.00;52533.69;5025058;28;19978;-69
2021/11/17 12:33:44;;;;;;;;;;;;;;;-144.99;100.00;52554.09;5025116;28;19997;-71
2021/11/17 12:36:15;;;;;;;;;;;;;;;-144.99;100.00;52558.16;5032201;28;19984;-69
2021/11/17 12:38:44;;;;;;;;;;;;;;;-144.99;100.00;52519.44;5027587;28;19981;-70
2021/11/17 12:41:12;;;;;;;;;;;;;;;-144.99;100.00;52541.84;5026991;28;20416;-69
2021/11/17 12:43:40;;;;;;;;;;;;;;;-144.99;100.00;52550.00;5027335;28;19997;-69
2021/11/17 12:46:09;;;;;;;;;;;;;;;-144.99;100.00;52521.47;5026656;28;20362;-69
2021/11/17 12:48:37;;;;;;;;;;;;;;;-144.99;100.00;52513.31;5027482;28;19984;-70
2021/11/17 12:51:05;;;;;;;;;;;;;;;-144.99;100.00;52529.63;5023114;28;19974;-70
2021/11/17 12:53:35;;;;;;;;;;;;;;;-144.99;100.00;52550.00;5026412;28;20478;-70
2021/11/17 12:56:05;;;;;;;;;;;;;;;-144.99;100.00;52533.69;5027612;28;20028;-68
2021/11/17 12:58:34;;;;;;;;;;;;;;;-144.99;100.00;52545.94;5025827;28;20017;-70
2021/11/17 13:01:13;;;;;;;;;;;;;;;-144.99;100.00;52533.69;5024071;28;20036;-69
2021/11/17 13:03:54;;;;;;;;;;;;;;;-144.99;100.00;52529.63;5027910;28;20005;-70
2021/11/17 13:06:22;;;;;;;;;;;;;;;-144.99;100.00;52566.31;5028407;28;19981;-69
2021/11/17 13:09:05;;;;;;;;;;;;;;;-144.99;100.00;52543.91;5031854;28;19978;-69
2021/11/17 13:11:33;;;;;;;;;;;;;;;-144.99;100.00;52517.41;5031558;28;20017;-70
2021/11/17 13:13:59;;;;;;;;;;;;;;;-144.99;100.00;52529.63;5030730;28;19998;-70
2021/11/17 13:16:27;;;;;;;;;;;;;;;-144.99;100.00;52539.81;5029796;28;20446;-70
2021/11/17 13:18:56;;;;;;;;;;;;;;;-144.99;100.00;52497.00;5030839;28;19981;-72
2021/11/17 13:21:29;;;;;;;;;;;;;;;-144.99;100.00;52517.41;5024818;28;20407;-73
2021/11/17 13:24:16;;;;;;;;;;;;;;;-144.99;100.00;52533.69;5030114;28;20084;-69
2021/11/17 13:26:45;;;;;;;;;;;;;;;-144.99;100.00;52517.41;5027674;28;20470;-69
2021/11/17 13:29:23;;;;;;;;;;;;;;;-144.99;100.00;52545.94;5029377;28;19985;-70
2021/11/17 13:31:50;;;;;;;;;;;;;;;-144.99;100.00;52529.63;5031034;28;20516;-69
2021/11/17 13:34:27;;;;;;;;;;;;;;;-144.99;100.00;52501.09;5030676;28;19994;-69
2021/11/17 13:36:54;;;;;;;;;;;;;;;-144.99;100.00;52492.94;5030983;28;20453;-70
2021/11/17 13:39:21;;;;;;;;;;;;;;;-144.99;100.00;52521.47;5025868;28;19978;-69
2021/11/17 13:41:50;;;;;;;;;;;;;;;-144.99;100.00;52521.47;5025517;28;20441;-70
2021/11/17 13:44:18;;;;;;;;;;;;;;;-144.99;100.00;52564.28;5029897;28;19994;-70
2021/11/17 13:46:52;;;;;;;;;;;;;;;-144.99;100.00;52533.69;5030263;28;20438;-70
2021/11/17 13:49:19;;;;;;;;;;;;;;;-144.99;100.00;52554.09;5030540;28;19974;-69
2021/11/17 13:51:45;;;;;;;;;;;;;;;-144.99;100.00;52543.91;5028111;28;20742;-71
2021/11/17 13:54:12;;;;;;;;;;;;;;;-144.99;100.00;52501.09;5026348;28;19993;-70
2021/11/17 13:56:38;;;;;;;;;;;;;;;-144.99;100.00;52529.63;5029864;28;19985;-70
2021/11/17 13:59:07;;;;;;;;;;;;;;;-144.99;100.00;52574.47;5030009;28;19978;-71
2021/11/17 14:01:33;;;;;;;;;;;;;;;-144.99;100.00;52505.16;5030601;28;19977;-69
2021/11/17 14:04:00;;;;;;;;;;;;;;;-144.99;100.00;52505.16;5024600;28;20080;-70
2021/11/17 14:06:26;;;;;;;;;;;;;;;-144.99;100.00;52543.91;5029554;28;20422;-70
2021/11/17 14:08:53;;;;;;;;;;;;;;;-144.99;100.00;52545.94;5030539;28;19989;-69
2021/11/17 14:11:20;;;;;;;;;;;;;;;-144.99;100.00;52529.63;5035186;28;19992;-71
2021/11/17 14:13:47;;;;;;;;;;;;;;;-144.99;100.00;52550.00;5042356;28;20004;-72
2021/11/17 14:16:16;;;;;;;;;;;;;;;-144.99;100.00;52517.41;5044745;28;20027;-72
2021/11/17 14:18:42;;;;;;;;;;;;;;;-144.99;100.00;52533.69;5041611;28;19966;-73
2021/11/17 14:21:09;;;;;;;;;;;;;;;-144.99;100.00;52513.31;5026437;28;19978;-69
2021/11/17 14:23:37;;;;;;;;;;;;;;;-144.99;100.00;52541.84;5029073;28;20083;-68
2021/11/17 14:26:03;;;;;;;;;;;;;;;-144.99;100.00;52537.78;5025677;28;19993;-68
2021/11/17 14:28:33;;;;;;;;;;;;;;;-144.99;100.00;52566.31;5029396;28;19929;-69
2021/11/17 14:31:01;;;;;;;;;;;;;;;-144.99;100.00;52529.63;5028543;28;19984;-70
2021/11/17 14:33:32;;;;;;;;;;;;;;;-144.99;100.00;52558.16;5027697;28;19997;-70
2021/11/17 14:35:59;;;;;;;;;;;;;;;-144.99;100.00;52556.13;5029664;28;19985;-69
2021/11/17 14:38:26;;;;;;;;;;;;;;;-144.99;100.00;52543.91;5029512;28;19978;-70
2021/11/17 14:40:53;;;;;;;;;;;;;;;-144.99;100.00;52517.41;5028752;28;20023;-69
2021/11/17 14:43:21;;;;;;;;;;;;;;;-144.99;100.00;52537.78;5028217;28;19989;-70
2021/11/17 14:45:48;;;;;;;;;;;;;;;-144.99;100.00;52537.78;5027727;28;20477;-70
2021/11/17 14:48:15;;;;;;;;;;;;;;;-144.99;100.00;52521.47;5029351;28;19985;-70
2021/11/17 14:50:44;;;;;;;;;;;;;;;-144.99;100.00;52541.84;5025740;28;19977;-70
2021/11/17 14:53:10;;;;;;;;;;;;;;;-144.99;100.00;52550.00;4675657;28;10000204;-70
2021/11/17 14:55:37;;;;;;;;;;;;;;;-144.99;100.00;52562.25;5029355;28;19982;-69
2021/11/17 14:58:04;;;;;;;;;;;;;;;-144.99;100.00;52529.63;5030356;28;20282;-69
2021/11/17 15:00:32;;;;;;;;;;;;;;;-144.99;100.00;52545.94;5033026;28;20489;-70
2021/11/17 15:02:58;;;;;;;;;;;;;;;-144.99;100.00;52521.47;5030780;28;19997;-69
2021/11/17 15:05:26;;;;;;;;;;;;;;;-144.99;100.00;52550.00;5029644;28;19998;-69
2021/11/17 15:07:53;;;;;;;;;;;;;;;-144.99;100.00;52586.69;5020276;28;19986;-69
2021/11/17 15:10:20;;;;;;;;;;;;;;;-144.99;100.00;52552.03;5028935;28;19992;-68